createdAt,value
2023-01-15T00:01:46.473Z,-0.52
2023-01-15T00:04:13.831Z,-0.50
2023-01-15T00:06:42.551Z,-0.54
2023-01-15T00:09:13.863Z,-0.55
2023-01-15T00:11:41.120Z,-0.55
2023-01-15T00:14:08.264Z,-0.57
2023-01-15T00:16:35.522Z,-0.59
2023-01-15T00:19:04.633Z,-0.61
2023-01-15T00:21:31.880Z,-0.67
2023-01-15T00:24:17.958Z,-0.73
2023-01-15T00:27:03.847Z,-0.77
2023-01-15T00:29:32.430Z,-0.76
2023-01-15T00:32:02.120Z,-0.75
2023-01-15T00:34:31.446Z,-0.78
2023-01-15T00:36:59.098Z,-0.82
2023-01-15T00:39:26.964Z,-0.87
2023-01-15T00:41:54.761Z,-0.91
2023-01-15T00:44:22.101Z,-0.89
2023-01-15T00:46:51.710Z,-0.86
2023-01-15T00:49:21.297Z,-0.83
2023-01-15T00:51:50.291Z,-0.79
2023-01-15T00:54:17.987Z,-0.81
2023-01-15T00:56:45.413Z,-0.85
2023-01-15T00:59:12.873Z,-0.91
2023-01-15T01:01:40.512Z,-0.91
2023-01-15T01:04:07.985Z,-0.87
2023-01-15T01:06:35.547Z,-0.82
2023-01-15T01:09:19.795Z,-0.80
2023-01-15T01:11:49.094Z,-0.83
2023-01-15T01:14:16.245Z,-0.88
2023-01-15T01:16:44.210Z,-0.89
2023-01-15T01:19:16.583Z,-0.89
2023-01-15T01:21:44.963Z,-0.86
2023-01-15T01:24:13.357Z,-0.83
2023-01-15T01:26:41.014Z,-0.82
2023-01-15T01:29:08.152Z,-0.84
2023-01-15T01:31:35.382Z,-0.87
2023-01-15T01:34:02.659Z,-0.91
2023-01-15T01:36:34.425Z,-0.93
2023-01-15T01:39:02.071Z,-0.93
2023-01-15T01:41:29.223Z,-0.90
2023-01-15T01:44:09.213Z,-0.90
2023-01-15T01:46:36.748Z,-0.94
2023-01-15T01:49:05.314Z,-0.99
2023-01-15T01:51:38.221Z,-1.03
2023-01-15T01:54:05.386Z,-1.04
2023-01-15T01:56:33.629Z,-1.00
2023-01-15T01:59:01.511Z,-0.95
2023-01-15T02:01:28.774Z,-0.93
2023-01-15T02:03:56.201Z,-0.94
2023-01-15T02:06:24.854Z,-0.97
2023-01-15T02:08:52.466Z,-1.01
2023-01-15T02:11:21.841Z,-1.01
2023-01-15T02:13:52.346Z,-0.96
2023-01-15T02:16:51.991Z,-0.92
2023-01-15T02:19:41.767Z,-0.90
2023-01-15T02:22:39.123Z,-0.93
2023-01-15T02:25:17.843Z,-0.98
2023-01-15T02:27:55.849Z,-1.03
2023-01-15T02:30:28.570Z,-1.04
2023-01-15T02:33:01.724Z,-1.02
2023-01-15T02:35:40.442Z,-0.98
2023-01-15T02:38:11.587Z,-0.95
2023-01-15T02:40:39.133Z,-0.97
2023-01-15T02:43:06.301Z,-1.00
2023-01-15T02:45:35.042Z,-1.01
2023-01-15T02:48:09.124Z,-0.97
2023-01-15T02:50:38.245Z,-0.92
2023-01-15T02:53:08.221Z,-0.88
2023-01-15T02:55:42.516Z,-0.90
2023-01-15T02:58:12.591Z,-0.95
2023-01-15T03:00:44.639Z,-0.91
2023-01-15T03:03:22.395Z,-0.85
2023-01-15T03:05:54.768Z,-0.80
2023-01-15T03:08:21.920Z,-0.78
2023-01-15T03:11:12.319Z,-0.78
2023-01-15T03:13:53.598Z,-0.85
2023-01-15T03:16:39.983Z,-0.91
2023-01-15T03:19:14.007Z,-0.96
2023-01-15T03:21:49.964Z,-0.95
2023-01-15T03:24:21.758Z,-0.93
2023-01-15T03:26:48.979Z,-0.91
2023-01-15T03:29:16.136Z,-0.91
2023-01-15T03:31:45.118Z,-0.92
2023-01-15T03:34:12.363Z,-0.91
2023-01-15T03:36:40.843Z,-0.92
2023-01-15T03:39:08.304Z,-0.92
2023-01-15T03:42:23.794Z,-0.89
2023-01-15T03:45:25.651Z,-0.85
2023-01-15T03:47:56.901Z,-0.79
2023-01-15T03:50:33.586Z,-0.80
2023-01-15T03:53:08.001Z,-0.85
2023-01-15T03:55:55.425Z,-0.89
2023-01-15T03:58:29.676Z,-0.92
2023-01-15T04:01:00.091Z,-0.90
2023-01-15T04:03:29.172Z,-0.89
2023-01-15T04:05:58.243Z,-0.91
2023-01-15T04:08:26.944Z,-0.96
2023-01-15T04:10:58.424Z,-1.00
2023-01-15T04:13:31.217Z,-1.00
2023-01-15T04:15:58.926Z,-0.95
2023-01-15T04:18:26.492Z,-0.93
2023-01-15T04:20:55.984Z,-0.91
2023-01-15T04:23:23.545Z,-0.92
2023-01-15T04:25:50.805Z,-0.95
2023-01-15T04:28:18.054Z,-0.96
2023-01-15T04:30:45.365Z,-0.94
2023-01-15T04:33:12.556Z,-0.91
2023-01-15T04:35:39.715Z,-0.89
2023-01-15T04:38:06.857Z,-0.91
2023-01-15T04:40:52.785Z,-0.92
2023-01-15T04:43:38.433Z,-0.96
2023-01-15T04:46:05.518Z,-0.98
2023-01-15T04:48:32.621Z,-0.98
2023-01-15T04:51:04.417Z,-0.95
2023-01-15T04:53:31.748Z,-0.92
2023-01-15T04:56:02.991Z,-0.90
2023-01-15T04:58:30.130Z,-0.92
2023-01-15T05:00:57.622Z,-0.94
2023-01-15T05:03:24.948Z,-0.95
2023-01-15T05:05:52.171Z,-0.93
2023-01-15T05:08:19.549Z,-0.91
2023-01-15T05:10:46.712Z,-0.89
2023-01-15T05:13:13.925Z,-0.90
2023-01-15T05:15:42.985Z,-0.92
2023-01-15T05:18:10.411Z,-0.95
2023-01-15T05:20:37.754Z,-0.94
2023-01-15T05:23:04.899Z,-0.93
2023-01-15T05:25:32.156Z,-0.92
2023-01-15T05:27:59.300Z,-0.93
2023-01-15T05:30:26.462Z,-0.97
2023-01-15T05:32:53.704Z,-0.97
2023-01-15T05:35:20.859Z,-0.96
2023-01-15T05:37:48.001Z,-0.91
2023-01-15T05:40:15.159Z,-0.87
2023-01-15T05:42:42.413Z,-0.84
2023-01-15T05:45:10.064Z,-0.87
2023-01-15T05:47:37.326Z,-0.90
2023-01-15T05:50:05.129Z,-0.89
2023-01-15T05:52:32.272Z,-0.88
2023-01-15T05:54:59.481Z,-0.84
2023-01-15T05:57:26.536Z,-0.82
2023-01-15T05:59:55.364Z,-0.83
2023-01-15T06:02:23.171Z,-0.87
2023-01-15T06:04:50.435Z,-0.88
2023-01-15T06:07:20.406Z,-0.84
2023-01-15T06:09:47.514Z,-0.78
2023-01-15T06:12:14.654Z,-0.78
2023-01-15T06:14:41.797Z,-0.80
2023-01-15T06:17:09.056Z,-0.82
2023-01-15T06:19:36.100Z,-0.82
2023-01-15T06:22:04.169Z,-0.76
2023-01-15T06:24:31.329Z,-0.73
2023-01-15T06:26:58.473Z,-0.70
2023-01-15T06:29:25.669Z,-0.71
2023-01-15T06:31:52.770Z,-0.74
2023-01-15T06:34:20.017Z,-0.75
2023-01-15T06:36:47.174Z,-0.71
2023-01-15T06:39:14.432Z,-0.69
2023-01-15T06:42:00.315Z,-0.64
2023-01-15T06:44:46.401Z,-0.64
2023-01-15T06:47:22.385Z,-0.68
2023-01-15T06:49:51.790Z,-0.69
2023-01-15T06:52:19.020Z,-0.67
2023-01-15T06:54:46.186Z,-0.65
2023-01-15T06:57:13.649Z,-0.66
2023-01-15T06:59:40.871Z,-0.67
2023-01-15T07:02:08.189Z,-0.69
2023-01-15T07:04:35.299Z,-0.69
2023-01-15T07:07:02.528Z,-0.66
2023-01-15T07:09:29.897Z,-0.63
2023-01-15T07:11:57.131Z,-0.61
2023-01-15T07:14:25.834Z,-0.62
2023-01-15T07:16:53.293Z,-0.62
2023-01-15T07:19:20.817Z,-0.59
2023-01-15T07:21:49.211Z,-0.56
2023-01-15T07:24:17.187Z,-0.54
2023-01-15T07:26:45.934Z,-0.53
2023-01-15T07:29:13.841Z,-0.55
2023-01-15T07:31:41.842Z,-0.57
2023-01-15T07:34:09.156Z,-0.54
2023-01-15T07:36:37.054Z,-0.51
2023-01-15T07:39:05.856Z,-0.47
2023-01-15T07:41:52.068Z,-0.43
2023-01-15T07:44:39.636Z,-0.44
2023-01-15T07:47:39.370Z,-0.44
2023-01-15T07:50:09.444Z,-0.41
2023-01-15T07:52:36.926Z,-0.37
2023-01-15T07:55:04.589Z,-0.32
2023-01-15T07:57:31.792Z,-0.32
2023-01-15T07:59:58.994Z,-0.36
2023-01-15T08:02:26.617Z,-0.38
2023-01-15T08:04:53.723Z,-0.38
2023-01-15T08:07:20.851Z,-0.35
2023-01-15T08:09:48.095Z,-0.33
2023-01-15T08:12:34.009Z,-0.31
2023-01-15T08:15:13.713Z,-0.29
2023-01-15T08:17:42.952Z,-0.33
2023-01-15T08:20:13.096Z,-0.28
2023-01-15T08:22:41.534Z,-0.22
2023-01-15T08:25:09.584Z,-0.19
2023-01-15T08:27:37.780Z,-0.16
2023-01-15T08:30:06.061Z,-0.17
2023-01-15T08:32:33.204Z,-0.20
2023-01-15T08:35:00.578Z,-0.19
2023-01-15T08:37:27.805Z,-0.16
2023-01-15T08:39:55.158Z,-0.09
2023-01-15T08:42:22.826Z,-0.06
2023-01-15T08:44:50.077Z,-0.08
2023-01-15T08:47:17.846Z,-0.08
2023-01-15T08:49:46.627Z,-0.06
2023-01-15T08:52:14.492Z,-0.02
2023-01-15T08:54:42.304Z,0.04
2023-01-15T08:57:10.122Z,0.07
2023-01-15T08:59:39.013Z,0.06
2023-01-15T09:02:06.435Z,0.06
2023-01-15T09:04:33.739Z,0.09
2023-01-15T09:07:01.261Z,0.15
2023-01-15T09:09:28.634Z,0.16
2023-01-15T09:11:55.679Z,0.18
2023-01-15T09:14:56.042Z,0.21
2023-01-15T09:17:09.865Z,0.18
2023-01-15T09:19:39.664Z,0.17
2023-01-15T09:22:06.914Z,0.21
2023-01-15T09:24:34.121Z,0.25
2023-01-15T09:27:01.346Z,0.26
2023-01-15T09:29:28.990Z,0.27
2023-01-15T09:31:56.169Z,0.25
2023-01-15T09:34:23.379Z,0.24
2023-01-15T09:36:51.595Z,0.24
2023-01-15T09:39:18.715Z,0.26
2023-01-15T09:42:04.585Z,0.29
2023-01-15T09:44:44.132Z,0.32
2023-01-15T09:47:24.299Z,0.30
2023-01-15T09:50:30.341Z,0.27
2023-01-15T09:53:25.296Z,0.28
2023-01-15T09:55:52.624Z,0.31
2023-01-15T09:58:21.964Z,0.35
2023-01-15T10:00:50.793Z,0.37
2023-01-15T10:03:25.831Z,0.41
2023-01-15T10:06:07.102Z,0.41
2023-01-15T10:08:37.679Z,0.38
2023-01-15T10:11:11.948Z,0.38
2023-01-15T10:13:42.171Z,0.41
2023-01-15T10:16:10.920Z,0.44
2023-01-15T10:18:39.337Z,0.43
2023-01-15T10:21:15.600Z,0.43
2023-01-15T10:24:04.162Z,0.41
2023-01-15T10:26:56.705Z,0.40
2023-01-15T10:29:48.831Z,0.42
2023-01-15T10:32:19.391Z,0.50
2023-01-15T10:35:08.429Z,0.55
2023-01-15T10:37:50.731Z,0.58
2023-01-15T10:40:55.875Z,0.54
2023-01-15T10:43:49.113Z,0.46
2023-01-15T10:46:22.516Z,0.42
2023-01-15T10:48:51.017Z,0.42
2023-01-15T10:51:22.198Z,0.46
2023-01-15T10:53:59.479Z,0.49
2023-01-15T10:56:42.560Z,0.50
2023-01-15T10:59:15.857Z,0.47
2023-01-15T11:01:43.135Z,0.45
2023-01-15T11:04:13.740Z,0.42
2023-01-15T11:06:40.992Z,0.42
2023-01-15T11:09:16.535Z,0.46
2023-01-15T11:12:00.853Z,0.50
2023-01-15T11:14:57.531Z,0.52
2023-01-15T11:17:55.503Z,0.47
2023-01-15T11:20:36.166Z,0.42
2023-01-15T11:23:19.504Z,0.43
2023-01-15T11:25:51.881Z,0.46
2023-01-15T11:28:21.287Z,0.48
2023-01-15T11:30:55.828Z,0.49
2023-01-15T11:33:28.164Z,0.47
2023-01-15T11:36:21.985Z,0.44
2023-01-15T11:38:50.033Z,0.39
2023-01-15T11:41:26.321Z,0.38
2023-01-15T11:44:18.877Z,0.37
2023-01-15T11:47:05.442Z,0.41
2023-01-15T11:49:51.419Z,0.44
2023-01-15T12:00:04.693Z,0.41
2023-01-15T12:02:51.306Z,0.42
2023-01-15T12:05:26.185Z,0.43
2023-01-15T12:07:55.843Z,0.41
2023-01-15T12:10:45.875Z,0.42
2023-01-15T12:13:18.814Z,0.45
2023-01-15T12:15:55.472Z,0.49
2023-01-15T12:18:33.656Z,0.47
2023-01-15T12:21:05.559Z,0.44
2023-01-15T12:23:45.303Z,0.42
2023-01-15T12:26:28.789Z,0.32
2023-01-15T12:29:05.057Z,0.23
2023-01-15T12:31:40.729Z,0.25
2023-01-15T12:34:38.820Z,0.26
2023-01-15T12:37:10.279Z,0.28
2023-01-15T12:39:44.313Z,0.27
2023-01-15T12:42:31.938Z,0.24
2023-01-15T12:45:01.186Z,0.22
2023-01-15T12:47:48.939Z,0.22
2023-01-15T12:50:22.626Z,0.25
2023-01-15T12:52:52.633Z,0.28
2023-01-15T12:55:21.225Z,0.29
2023-01-15T12:57:54.262Z,0.28
2023-01-15T13:00:33.206Z,0.25
2023-01-15T13:03:12.820Z,0.22
2023-01-15T13:05:47.961Z,0.20
2023-01-15T16:36:40.629Z,-1.51
2023-01-15T16:39:24.569Z,-1.48
2023-01-15T16:41:57.085Z,-1.37
2023-01-15T16:44:39.634Z,-1.20
2023-01-15T16:47:07.630Z,-1.01
2023-01-15T16:49:38.226Z,-0.83
2023-01-15T16:52:35.424Z,-0.71
2023-01-15T16:55:03.045Z,-0.65
2023-01-15T16:57:35.224Z,-0.54
2023-01-15T17:00:06.146Z,-0.41
2023-01-15T17:02:44.667Z,-0.32
2023-01-15T17:05:22.278Z,-0.25
2023-01-15T17:07:50.059Z,-0.25
2023-01-15T17:10:26.587Z,-0.30
2023-01-15T17:12:56.067Z,-0.28
2023-01-15T17:15:27.313Z,-0.21
2023-01-15T17:17:55.014Z,-0.19
2023-01-15T17:20:27.595Z,-0.19
2023-01-15T17:22:55.137Z,-0.20
2023-01-15T17:25:33.274Z,-0.24
2023-01-15T17:28:02.137Z,-0.24
2023-01-15T17:30:31.163Z,-0.23
2023-01-15T17:33:03.619Z,-0.24
2023-01-15T17:35:32.901Z,-0.18
2023-01-15T17:38:00.063Z,-0.14
2023-01-15T17:40:27.722Z,-0.14
2023-01-15T17:42:55.885Z,-0.17
2023-01-15T17:45:28.065Z,-0.22
2023-01-15T17:47:55.407Z,-0.19
2023-01-15T17:50:23.417Z,-0.10
2023-01-15T17:52:50.638Z,-0.08
2023-01-15T17:55:39.285Z,-0.08
2023-01-15T17:58:27.427Z,-0.14
2023-01-15T18:01:13.355Z,-0.13
2023-01-15T18:04:03.716Z,-0.14
2023-01-15T18:13:44.624Z,0.05
2023-01-15T18:16:13.162Z,0.04
2023-01-15T18:18:40.765Z,-0.03
2023-01-15T18:21:08.027Z,0.02
2023-01-15T18:23:39.829Z,0.02
2023-01-15T18:26:07.863Z,-0.01
2023-01-15T18:28:36.646Z,-0.02
2023-01-15T18:31:04.152Z,-0.08
2023-01-15T18:33:31.552Z,-0.10
2023-01-15T18:36:13.139Z,-0.04
2023-01-15T18:38:44.062Z,0.01
2023-01-15T18:41:13.271Z,0.04
2023-01-15T18:43:59.592Z,-0.07
2023-01-15T18:46:48.664Z,-0.16
2023-01-15T18:49:16.090Z,-0.22
2023-01-15T18:51:43.961Z,-0.24
2023-01-15T18:54:13.770Z,-0.25
2023-01-15T18:56:43.144Z,-0.32
2023-01-15T18:59:12.205Z,-0.34
2023-01-15T19:01:40.590Z,-0.37
2023-01-15T19:04:11.187Z,-0.48
2023-01-15T19:06:39.892Z,-0.59
2023-01-15T19:09:08.753Z,-0.58
2023-01-15T19:11:36.927Z,-0.53
2023-01-15T19:14:22.918Z,-0.53
2023-01-15T19:17:08.906Z,-0.59
2023-01-15T19:19:36.220Z,-0.72
2023-01-15T19:22:21.959Z,-0.88
2023-01-15T19:24:49.322Z,-0.95
2023-01-15T19:27:17.505Z,-0.90
2023-01-15T19:29:45.037Z,-0.88
2023-01-15T19:32:13.002Z,-0.89
2023-01-15T19:34:40.252Z,-0.89
2023-01-15T19:37:08.118Z,-0.87
2023-01-15T19:39:35.802Z,-0.91
2023-01-15T19:42:21.777Z,-0.94
2023-01-15T19:45:08.383Z,-1.03
2023-01-15T19:47:56.012Z,-1.07
2023-01-15T19:50:37.827Z,-1.08
2023-01-15T19:53:05.976Z,-1.05
2023-01-15T19:55:35.136Z,-1.04
2023-01-15T19:58:04.544Z,-1.09
2023-01-15T20:00:33.759Z,-1.11
2023-01-15T20:03:03.122Z,-1.02
2023-01-15T20:05:31.978Z,-0.94
2023-01-15T20:08:00.040Z,-0.88
2023-01-15T20:10:28.775Z,-0.92
2023-01-15T20:13:14.827Z,-1.02
2023-01-15T20:15:44.119Z,-1.08
2023-01-15T20:18:12.078Z,-1.08
2023-01-15T20:20:40.153Z,-1.02
2023-01-15T20:23:08.028Z,-0.97
2023-01-15T20:25:36.967Z,-0.98
2023-01-15T20:28:06.859Z,-1.00
2023-01-15T20:30:34.383Z,-0.96
2023-01-15T20:33:03.917Z,-0.98
2023-01-15T20:35:34.229Z,-1.00
2023-01-15T20:38:04.139Z,-0.94
2023-01-15T20:40:33.110Z,-0.91
2023-01-15T20:43:19.521Z,-0.93
2023-01-15T20:45:47.652Z,-0.97
2023-01-15T20:48:15.354Z,-1.00
2023-01-15T20:51:01.127Z,-1.01
2023-01-15T20:53:33.789Z,-0.93
2023-01-15T20:56:04.657Z,-0.82
2023-01-15T20:58:32.000Z,-0.79
2023-01-15T21:01:05.931Z,-0.82
2023-01-15T21:03:33.238Z,-0.80
2023-01-15T21:06:03.797Z,-0.83
2023-01-15T21:08:33.865Z,-0.87
2023-01-15T21:11:01.099Z,-0.86
2023-01-15T21:13:28.324Z,-0.81
2023-01-15T21:15:56.600Z,-0.79
2023-01-15T21:18:24.709Z,-0.70
2023-01-15T21:20:52.126Z,-0.67
2023-01-15T21:23:19.173Z,-0.74
2023-01-15T21:25:46.322Z,-0.79
2023-01-15T21:28:13.678Z,-0.75
2023-01-15T21:30:41.543Z,-0.72
2023-01-15T21:33:09.056Z,-0.70
2023-01-15T21:35:40.167Z,-0.70
2023-01-15T21:38:08.291Z,-0.74
2023-01-15T21:40:38.639Z,-0.75
2023-01-15T21:43:24.945Z,-0.75
2023-01-15T21:45:52.126Z,-0.75
2023-01-15T21:48:19.594Z,-0.75
2023-01-15T21:50:46.814Z,-0.74
2023-01-15T21:53:13.952Z,-0.76
2023-01-15T21:55:48.694Z,-0.80
2023-01-15T21:58:16.130Z,-0.83
2023-01-15T22:00:43.387Z,-0.81
2023-01-15T22:03:12.477Z,-0.82
2023-01-15T22:05:39.625Z,-0.84
2023-01-15T22:08:08.744Z,-0.88
2023-01-15T22:10:35.876Z,-0.94
2023-01-15T22:13:03.035Z,-1.00
2023-01-15T22:15:30.281Z,-0.99
2023-01-15T22:17:58.244Z,-0.99
2023-01-15T22:20:25.600Z,-1.00
2023-01-15T22:22:52.744Z,-1.02
2023-01-15T22:25:20.101Z,-0.99
2023-01-15T22:27:47.149Z,-1.00
2023-01-15T22:30:15.859Z,-0.97
2023-01-15T22:32:43.105Z,-0.99
2023-01-15T22:35:11.054Z,-1.05
2023-01-15T22:37:38.305Z,-1.02
2023-01-15T22:40:06.598Z,-0.98
2023-01-15T22:42:33.942Z,-1.01
2023-01-15T22:45:01.188Z,-1.07
2023-01-15T22:47:28.958Z,-1.13
2023-01-15T22:49:56.210Z,-1.16
2023-01-15T22:52:25.758Z,-1.12
2023-01-15T22:54:53.285Z,-1.11
2023-01-15T22:57:20.621Z,-1.12
2023-01-15T22:59:47.879Z,-1.14
2023-01-15T23:02:14.976Z,-1.14
2023-01-15T23:04:42.118Z,-1.06
2023-01-15T23:07:09.674Z,-1.03
2023-01-15T23:09:36.669Z,-1.13
2023-01-15T23:12:03.929Z,-1.16
2023-01-15T23:14:30.931Z,-1.04
2023-01-15T23:16:58.041Z,-1.00
2023-01-15T23:19:28.007Z,-0.90
2023-01-15T23:21:55.348Z,-0.87
2023-01-15T23:24:22.355Z,-0.88
2023-01-15T23:26:49.401Z,-0.90
2023-01-15T23:29:16.507Z,-0.90
2023-01-15T23:31:43.528Z,-0.91
2023-01-15T23:34:11.460Z,-0.99
2023-01-15T23:36:38.844Z,-0.96
2023-01-15T23:39:05.942Z,-0.92
2023-01-15T23:41:51.555Z,-0.93
2023-01-15T23:44:38.200Z,-0.93
2023-01-15T23:47:06.344Z,-0.82
2023-01-15T23:49:33.373Z,-0.81
2023-01-15T23:52:00.471Z,-0.84
2023-01-15T23:54:29.075Z,-0.90
2023-01-15T23:56:56.536Z,-0.88
2023-01-15T23:59:23.919Z,-0.77
